createdAt,value
2024-04-09T00:00:36.422Z,644.00
2024-04-09T00:01:36.404Z,664.00
2024-04-09T00:02:36.544Z,663.00
2024-04-09T00:03:36.721Z,664.00
2024-04-09T00:04:36.932Z,649.00
2024-04-09T00:05:36.795Z,636.00
2024-04-09T00:06:37.006Z,661.00
2024-04-09T00:07:36.992Z,656.00
2024-04-09T00:08:37.086Z,663.00
2024-04-09T00:09:37.254Z,694.00
2024-04-09T00:10:37.362Z,739.00
2024-04-09T00:11:37.532Z,880.00
2024-04-09T00:12:37.599Z,771.00
2024-04-09T00:13:37.576Z,782.00
2024-04-09T00:14:37.679Z,815.00
2024-04-09T00:15:38.045Z,768.00
2024-04-09T00:16:37.891Z,723.00
2024-04-09T00:17:38.131Z,728.00
2024-04-09T00:18:38.195Z,776.00
2024-04-09T00:19:38.216Z,786.00
2024-04-09T00:20:38.273Z,794.00
2024-04-09T00:21:38.579Z,756.00
2024-04-09T00:22:38.549Z,739.00
2024-04-09T00:23:38.628Z,781.00
2024-04-09T00:24:38.824Z,826.00
2024-04-09T00:25:38.856Z,843.00
2024-04-09T00:26:38.939Z,835.00
2024-04-09T00:27:40.829Z,868.00
2024-04-09T00:28:39.046Z,874.00
2024-04-09T00:29:39.060Z,797.00
2024-04-09T00:30:39.106Z,810.00
2024-04-09T00:31:39.048Z,810.00
2024-04-09T00:32:39.181Z,793.00
2024-04-09T00:33:39.197Z,763.00
2024-04-09T00:34:39.177Z,783.00
2024-04-09T00:35:39.057Z,819.00
2024-04-09T00:36:39.099Z,761.00
2024-04-09T00:37:39.091Z,763.00
2024-04-09T00:38:39.060Z,754.00
2024-04-09T00:39:39.187Z,734.00
2024-04-09T00:40:39.083Z,781.00
2024-04-09T00:41:39.084Z,823.00
2024-04-09T00:42:39.107Z,831.00
2024-04-09T00:43:39.072Z,870.00
2024-04-09T00:44:39.081Z,911.00
2024-04-09T00:45:39.312Z,925.00
2024-04-09T00:46:39.094Z,942.00
2024-04-09T00:47:39.218Z,885.00
2024-04-09T00:48:39.526Z,878.00
2024-04-09T00:49:39.087Z,772.00
2024-04-09T00:50:39.091Z,735.00
2024-04-09T00:51:39.128Z,763.00
2024-04-09T00:52:39.114Z,801.00
2024-04-09T00:53:39.115Z,800.00
2024-04-09T00:54:39.143Z,842.00
2024-04-09T00:55:39.081Z,808.00
2024-04-09T00:56:39.156Z,706.00
2024-04-09T00:57:39.246Z,676.00
2024-04-09T00:58:39.346Z,666.00
2024-04-09T00:59:39.468Z,689.00
2024-04-09T01:00:39.678Z,700.00
2024-04-09T01:01:39.684Z,685.00
2024-04-09T01:02:39.797Z,717.00
2024-04-09T01:03:40.102Z,718.00
2024-04-09T01:04:40.160Z,747.00
2024-04-09T01:05:40.062Z,782.00
2024-04-09T01:06:40.209Z,780.00
2024-04-09T01:07:41.045Z,741.00
2024-04-09T01:08:40.382Z,755.00
2024-04-09T01:09:40.573Z,776.00
2024-04-09T01:10:40.569Z,821.00
2024-04-09T01:11:40.677Z,847.00
2024-04-09T01:12:40.774Z,785.00
2024-04-09T01:13:40.892Z,783.00
2024-04-09T01:14:41.003Z,653.00
2024-04-09T01:15:41.190Z,631.00
2024-04-09T01:16:41.200Z,668.00
2024-04-09T01:17:41.373Z,728.00
2024-04-09T01:18:41.578Z,794.00
2024-04-09T01:19:41.540Z,825.00
2024-04-09T01:20:41.616Z,814.00
2024-04-09T01:21:41.732Z,723.00
2024-04-09T01:22:41.799Z,728.00
2024-04-09T01:23:41.903Z,739.00
2024-04-09T01:24:42.036Z,734.00
2024-04-09T01:25:42.125Z,673.00
2024-04-09T01:26:42.211Z,644.00
2024-04-09T01:27:42.284Z,625.00
2024-04-09T01:28:42.400Z,640.00
2024-04-09T01:29:42.488Z,655.00
2024-04-09T01:30:42.665Z,637.00
2024-04-09T01:31:42.699Z,629.00
2024-04-09T01:32:42.944Z,627.00
2024-04-09T01:33:42.958Z,602.00
2024-04-09T01:34:43.037Z,590.00
2024-04-09T01:35:43.087Z,609.00
2024-04-09T01:36:43.175Z,621.00
2024-04-09T01:37:43.285Z,640.00
2024-04-09T01:38:43.383Z,654.00
2024-04-09T01:39:43.481Z,682.00
2024-04-09T01:40:43.592Z,643.00
2024-04-09T01:41:43.688Z,645.00
2024-04-09T01:42:43.827Z,640.00
2024-04-09T01:43:43.892Z,654.00
2024-04-09T01:44:43.965Z,652.00
2024-04-09T01:45:44.602Z,635.00
2024-04-09T01:46:44.204Z,638.00
2024-04-09T01:47:44.333Z,643.00
2024-04-09T01:48:44.446Z,649.00
2024-04-09T01:49:44.467Z,643.00
2024-04-09T01:50:44.587Z,682.00
2024-04-09T01:51:44.713Z,671.00
2024-04-09T01:52:44.825Z,677.00
2024-04-09T01:54:01.554Z,600.00
2024-04-09T01:55:01.519Z,600.00
2024-04-09T01:56:01.542Z,600.00
2024-04-09T01:57:01.596Z,600.00
2024-04-09T01:58:01.599Z,600.00
2024-04-09T01:59:01.501Z,599.00
2024-04-09T02:00:01.675Z,605.00
2024-04-09T02:01:01.582Z,615.00
2024-04-09T02:02:01.689Z,606.00
2024-04-09T02:03:01.665Z,620.00
2024-04-09T02:04:01.565Z,611.00
2024-04-09T02:05:01.535Z,622.00
2024-04-09T02:06:01.687Z,614.00
2024-04-09T02:07:01.510Z,602.00
2024-04-09T02:08:01.600Z,605.00
2024-04-09T02:09:01.681Z,609.00
2024-04-09T02:10:01.541Z,623.00
2024-04-09T02:11:01.529Z,616.00
2024-04-09T02:12:01.809Z,611.00
2024-04-09T02:13:01.714Z,631.00
2024-04-09T02:14:01.643Z,625.00
2024-04-09T02:15:01.602Z,632.00
2024-04-09T02:16:01.665Z,625.00
2024-04-09T02:17:01.736Z,617.00
2024-04-09T02:18:01.779Z,629.00
2024-04-09T02:19:01.574Z,606.00
2024-04-09T02:20:01.556Z,609.00
2024-04-09T02:21:01.640Z,598.00
2024-04-09T02:22:01.575Z,602.00
2024-04-09T02:23:01.608Z,618.00
2024-04-09T02:24:01.691Z,634.00
2024-04-09T02:25:01.750Z,645.00
2024-04-09T02:26:01.625Z,630.00
2024-04-09T02:27:01.623Z,616.00
2024-04-09T02:28:01.584Z,600.00
2024-04-09T02:29:01.690Z,595.00
2024-04-09T02:30:01.667Z,600.00
2024-04-09T02:31:01.606Z,608.00
2024-04-09T02:32:01.771Z,612.00
2024-04-09T02:33:01.744Z,600.00
2024-04-09T02:34:01.772Z,612.00
2024-04-09T02:35:01.605Z,620.00
2024-04-09T02:36:01.597Z,649.00
2024-04-09T02:37:01.639Z,693.00
2024-04-09T02:38:01.615Z,758.00
2024-04-09T02:39:01.625Z,789.00
2024-04-09T02:40:01.800Z,793.00
2024-04-09T02:41:01.790Z,783.00
2024-04-09T02:42:01.907Z,815.00
2024-04-09T02:43:01.937Z,806.00
2024-04-09T02:44:02.008Z,846.00
2024-04-09T02:45:02.179Z,869.00
2024-04-09T02:46:02.228Z,830.00
2024-04-09T02:47:02.391Z,848.00
2024-04-09T02:48:02.540Z,763.00
2024-04-09T02:49:02.663Z,784.00
2024-04-09T02:50:02.607Z,796.00
2024-04-09T02:51:02.723Z,802.00
2024-04-09T02:52:02.808Z,708.00
2024-04-09T02:53:02.931Z,708.00
2024-04-09T02:54:03.037Z,669.00
2024-04-09T02:55:03.129Z,660.00
2024-04-09T02:56:03.182Z,655.00
2024-04-09T02:57:03.275Z,644.00
2024-04-09T02:58:03.376Z,657.00
2024-04-09T02:59:03.493Z,661.00
2024-04-09T03:00:03.612Z,676.00
2024-04-09T03:01:03.723Z,674.00
2024-04-09T03:02:03.808Z,699.00
2024-04-09T03:03:03.893Z,730.00
2024-04-09T03:04:04.115Z,713.00
2024-04-09T03:05:04.091Z,712.00
2024-04-09T03:06:04.260Z,793.00
2024-04-09T03:07:04.319Z,827.00
2024-04-09T03:08:04.470Z,861.00
2024-04-09T03:09:04.580Z,884.00
2024-04-09T03:10:04.664Z,894.00
2024-04-09T03:11:04.809Z,810.00
2024-04-09T03:12:04.857Z,834.00
2024-04-09T03:13:05.006Z,849.00
2024-04-09T03:14:05.085Z,850.00
2024-04-09T03:15:05.268Z,875.00
2024-04-09T03:16:05.301Z,865.00
2024-04-09T03:17:05.370Z,838.00
2024-04-09T03:18:05.568Z,799.00
2024-04-09T03:19:05.562Z,769.00
2024-04-09T03:20:05.669Z,733.00
2024-04-09T03:21:05.726Z,734.00
2024-04-09T03:22:05.852Z,732.00
2024-04-09T03:23:05.913Z,719.00
2024-04-09T03:24:06.071Z,755.00
2024-04-09T03:25:06.069Z,774.00
2024-04-09T03:26:06.193Z,706.00
2024-04-09T03:27:06.330Z,718.00
2024-04-09T03:28:06.397Z,673.00
2024-04-09T03:29:06.462Z,657.00
2024-04-09T03:30:06.682Z,709.00
2024-04-09T03:31:06.629Z,720.00
2024-04-09T03:32:06.758Z,725.00
2024-04-09T03:33:23.628Z,600.00
2024-04-09T03:34:23.656Z,600.00
2024-04-09T03:35:23.412Z,600.00
2024-04-09T03:36:23.442Z,600.00
2024-04-09T03:37:23.426Z,600.00
2024-04-09T03:38:23.428Z,601.00
2024-04-09T03:39:23.469Z,601.00
2024-04-09T03:40:23.420Z,612.00
2024-04-09T03:41:23.439Z,612.00
2024-04-09T03:42:23.437Z,619.00
2024-04-09T03:43:23.432Z,607.00
2024-04-09T03:44:23.421Z,600.00
2024-04-09T03:45:23.450Z,611.00
2024-04-09T03:46:23.453Z,636.00
2024-04-09T03:47:23.495Z,606.00
2024-04-09T03:48:23.618Z,613.00
2024-04-09T03:49:23.620Z,614.00
2024-04-09T03:50:23.483Z,615.00
2024-04-09T03:51:23.594Z,657.00
2024-04-09T03:52:23.512Z,647.00
2024-04-09T03:53:23.500Z,634.00
2024-04-09T03:54:23.551Z,639.00
2024-04-09T03:55:24.065Z,644.00
2024-04-09T03:56:23.498Z,642.00
2024-04-09T03:57:23.503Z,644.00
2024-04-09T03:58:23.471Z,631.00
2024-04-09T03:59:23.476Z,613.00
2024-04-09T04:00:23.594Z,625.00
2024-04-09T04:01:23.541Z,620.00
2024-04-09T04:02:23.519Z,622.00
2024-04-09T04:03:23.638Z,640.00
2024-04-09T04:04:23.662Z,645.00
2024-04-09T04:05:23.532Z,664.00
2024-04-09T04:06:23.553Z,755.00
2024-04-09T04:07:23.524Z,769.00
2024-04-09T04:08:23.579Z,796.00
2024-04-09T04:09:23.563Z,751.00
2024-04-09T04:10:23.549Z,704.00
2024-04-09T04:11:23.627Z,795.00
2024-04-09T04:12:23.645Z,893.00
2024-04-09T04:13:23.527Z,965.00
2024-04-09T04:14:23.536Z,976.00
2024-04-09T04:15:23.589Z,984.00
2024-04-09T04:16:23.556Z,937.00
2024-04-09T04:17:23.620Z,951.00
2024-04-09T04:18:23.617Z,1008.00
2024-04-09T04:19:23.551Z,1029.00
2024-04-09T04:20:23.595Z,1034.00
2024-04-09T04:21:23.721Z,1031.00
2024-04-09T04:22:23.800Z,1035.00
2024-04-09T04:23:23.903Z,1039.00
2024-04-09T04:24:24.054Z,1087.00
2024-04-09T04:25:24.104Z,1090.00
2024-04-09T04:26:24.196Z,1104.00
2024-04-09T04:27:24.305Z,1153.00
2024-04-09T04:28:24.372Z,1119.00
2024-04-09T04:29:24.437Z,1106.00
2024-04-09T04:30:24.599Z,1083.00
2024-04-09T04:31:24.653Z,1063.00
2024-04-09T04:32:32.247Z,600.00
2024-04-09T04:33:32.386Z,600.00
2024-04-09T04:34:32.290Z,600.00
2024-04-09T04:35:32.315Z,600.00
2024-04-09T04:36:32.488Z,600.00
2024-04-09T04:37:32.507Z,601.00
2024-04-09T04:38:32.583Z,608.00
2024-04-09T04:39:32.692Z,603.00
2024-04-09T04:40:32.801Z,604.00
2024-04-09T04:41:32.890Z,637.00
2024-04-09T04:42:33.066Z,644.00
2024-04-09T04:43:33.096Z,630.00
2024-04-09T04:44:33.181Z,633.00
2024-04-09T04:45:33.316Z,642.00
2024-04-09T04:46:33.379Z,651.00
2024-04-09T04:47:33.598Z,649.00
2024-04-09T04:48:33.650Z,626.00
2024-04-09T04:49:33.822Z,643.00
2024-04-09T04:50:33.745Z,649.00
2024-04-09T04:51:33.850Z,660.00
2024-04-09T04:52:33.873Z,656.00
2024-04-09T04:53:34.017Z,678.00
2024-04-09T04:54:34.163Z,717.00
2024-04-09T04:55:34.160Z,784.00
2024-04-09T04:56:34.255Z,824.00
2024-04-09T04:57:34.375Z,885.00
2024-04-09T04:58:34.457Z,925.00
2024-04-09T04:59:34.527Z,966.00
2024-04-09T05:00:34.633Z,988.00
2024-04-09T05:01:34.738Z,1024.00
2024-04-09T05:02:34.852Z,1043.00
2024-04-09T05:03:35.026Z,1060.00
2024-04-09T05:04:35.186Z,1051.00
2024-04-09T05:05:35.121Z,1036.00
2024-04-09T05:06:35.334Z,1052.00
2024-04-09T05:07:35.374Z,1048.00
2024-04-09T05:08:35.465Z,1062.00
2024-04-09T05:09:35.680Z,1073.00
2024-04-09T05:10:35.686Z,1092.00
2024-04-09T05:11:35.802Z,1123.00
2024-04-09T05:12:35.929Z,1129.00
2024-04-09T05:13:35.997Z,1134.00
2024-04-09T05:14:36.046Z,1107.00
2024-04-09T05:15:36.221Z,1108.00
2024-04-09T05:16:36.265Z,1136.00
2024-04-09T05:17:36.412Z,1163.00
2024-04-09T05:18:36.702Z,1202.00
2024-04-09T05:19:36.668Z,1244.00
2024-04-09T05:20:36.691Z,1278.00
2024-04-09T05:21:36.850Z,1272.00
2024-04-09T05:22:36.957Z,1289.00
2024-04-09T05:23:37.011Z,1299.00
2024-04-09T05:24:37.205Z,1276.00
2024-04-09T05:25:37.231Z,1276.00
2024-04-09T05:26:37.348Z,1300.00
2024-04-09T05:27:37.479Z,1308.00
2024-04-09T05:28:37.607Z,1317.00
2024-04-09T05:29:37.690Z,1312.00
2024-04-09T05:30:37.782Z,1330.00
2024-04-09T05:31:37.871Z,1349.00
2024-04-09T05:32:38.167Z,1352.00
2024-04-09T05:33:38.167Z,1360.00
2024-04-09T05:34:38.188Z,1386.00
2024-04-09T05:35:38.288Z,1365.00
2024-04-09T05:36:38.440Z,1372.00
2024-04-09T05:37:38.519Z,1411.00
2024-04-09T05:38:38.776Z,1457.00
2024-04-09T05:39:38.768Z,1526.00
2024-04-09T05:40:38.767Z,1594.00
2024-04-09T05:41:38.865Z,1646.00
2024-04-09T05:42:39.096Z,1697.00
2024-04-09T05:43:39.095Z,1695.00
2024-04-09T05:44:39.144Z,1753.00
2024-04-09T05:45:39.270Z,1860.00
2024-04-09T05:46:39.335Z,1989.00
2024-04-09T05:47:39.485Z,2051.00
2024-04-09T05:48:39.727Z,2110.00
2024-04-09T05:49:39.641Z,2210.00
2024-04-09T05:50:39.688Z,2268.00
2024-04-09T05:51:39.897Z,2325.00
2024-04-09T05:52:39.896Z,2438.00
2024-04-09T05:53:39.992Z,2436.00
2024-04-09T05:54:40.179Z,2327.00
2024-04-09T05:55:40.164Z,1959.00
2024-04-09T05:56:40.206Z,2046.00
2024-04-09T05:57:40.454Z,2181.00
2024-04-09T05:58:40.376Z,2250.00
2024-04-09T05:59:40.467Z,2200.00
2024-04-09T06:00:40.652Z,2247.00
2024-04-09T06:01:40.773Z,2233.00
2024-04-09T06:02:40.754Z,2454.00
2024-04-09T06:03:40.918Z,2575.00
2024-04-09T06:04:40.976Z,2593.00
2024-04-09T06:05:41.077Z,2694.00
2024-04-09T06:06:41.200Z,2748.00
2024-04-09T06:07:41.274Z,2774.00
2024-04-09T06:08:41.388Z,2800.00
2024-04-09T06:09:41.685Z,2679.00
2024-04-09T06:10:42.127Z,2595.00
2024-04-09T06:11:41.622Z,2580.00
2024-04-09T06:12:41.776Z,2760.00
2024-04-09T06:13:41.674Z,2901.00
2024-04-09T06:14:41.706Z,2856.00
2024-04-09T06:15:41.824Z,2928.00
2024-04-09T06:16:41.772Z,3068.00
2024-04-09T06:17:41.967Z,3177.00
2024-04-09T06:18:42.028Z,3190.00
2024-04-09T06:19:42.036Z,3168.00
2024-04-09T06:20:41.946Z,3178.00
2024-04-09T06:21:41.987Z,3262.00
2024-04-09T06:22:42.062Z,3125.00
2024-04-09T06:23:42.197Z,3121.00
2024-04-09T06:24:42.452Z,3138.00
2024-04-09T06:25:42.347Z,3220.00
2024-04-09T06:26:42.463Z,3335.00
2024-04-09T06:27:42.594Z,3384.00
2024-04-09T06:28:42.685Z,3520.00
2024-04-09T06:29:42.731Z,3597.00
2024-04-09T06:30:42.911Z,3611.00
2024-04-09T06:31:42.966Z,3529.00
2024-04-09T06:32:43.226Z,3572.00
2024-04-09T06:33:43.261Z,3677.00
2024-04-09T06:34:43.262Z,3675.00
2024-04-09T06:35:43.379Z,3646.00
2024-04-09T06:36:43.531Z,3675.00
2024-04-09T06:37:43.619Z,3629.00
2024-04-09T06:38:43.692Z,3595.00
2024-04-09T06:39:43.950Z,3633.00
2024-04-09T06:40:43.913Z,3585.00
2024-04-09T06:41:44.024Z,3612.00
2024-04-09T06:42:44.268Z,3672.00
2024-04-09T06:43:44.216Z,3783.00
2024-04-09T06:44:44.338Z,3689.00
2024-04-09T06:45:44.489Z,3727.00
2024-04-09T06:46:44.586Z,3795.00
2024-04-09T06:47:44.766Z,3586.00
2024-04-09T06:48:44.893Z,3449.00
2024-04-09T06:49:45.131Z,3518.00
2024-04-09T06:50:44.959Z,3496.00
2024-04-09T06:51:45.105Z,3570.00
2024-04-09T06:52:45.243Z,3672.00
2024-04-09T06:53:45.336Z,3728.00
2024-04-09T06:54:45.547Z,3905.00
2024-04-09T06:55:45.528Z,3849.00
2024-04-09T06:56:45.623Z,3856.00
2024-04-09T06:57:45.823Z,3865.00
2024-04-09T06:58:45.871Z,3883.00
2024-04-09T06:59:45.935Z,3894.00
2024-04-09T07:00:46.196Z,3862.00
2024-04-09T07:01:46.372Z,3790.00
2024-04-09T07:02:46.324Z,3652.00
2024-04-09T07:03:46.491Z,3701.00
2024-04-09T07:04:46.483Z,3800.00
2024-04-09T07:05:46.595Z,3855.00
2024-04-09T07:06:46.747Z,3910.00
2024-04-09T07:07:46.788Z,3900.00
2024-04-09T07:08:46.887Z,3863.00
2024-04-09T07:09:47.020Z,3747.00
2024-04-09T07:10:47.059Z,3723.00
2024-04-09T07:11:47.283Z,3797.00
2024-04-09T07:12:47.304Z,3867.00
2024-04-09T07:13:47.424Z,3890.00
2024-04-09T07:14:47.427Z,3887.00
2024-04-09T07:15:47.612Z,3918.00
2024-04-09T07:16:47.866Z,3929.00
2024-04-09T07:17:47.817Z,3993.00
2024-04-09T07:18:47.923Z,4005.00
2024-04-09T07:19:47.942Z,4010.00
2024-04-09T07:20:48.003Z,4036.00
2024-04-09T07:21:48.165Z,4040.00
2024-04-09T07:22:48.223Z,4016.00
2024-04-09T07:23:48.338Z,4015.00
2024-04-09T07:24:48.462Z,3996.00
2024-04-09T07:25:48.493Z,3933.00
2024-04-09T07:26:48.611Z,3942.00
2024-04-09T07:27:48.673Z,3923.00
2024-04-09T07:28:48.814Z,3848.00
2024-04-09T07:29:48.886Z,3857.00
2024-04-09T07:30:49.055Z,3798.00
2024-04-09T07:31:49.091Z,3718.00
2024-04-09T07:32:49.242Z,3710.00
2024-04-09T07:33:49.271Z,3752.00
2024-04-09T07:34:49.357Z,3802.00
2024-04-09T07:35:49.469Z,3874.00
2024-04-09T07:36:49.647Z,3942.00
2024-04-09T07:37:49.642Z,3991.00
2024-04-09T07:38:49.770Z,4031.00
2024-04-09T07:39:49.896Z,4085.00
2024-04-09T07:40:49.946Z,4114.00
2024-04-09T07:41:50.087Z,4061.00
2024-04-09T07:42:50.249Z,4055.00
2024-04-09T07:43:50.280Z,3937.00
2024-04-09T07:44:50.355Z,3811.00
2024-04-09T07:45:50.488Z,3796.00
2024-04-09T07:46:50.579Z,3778.00
2024-04-09T07:47:50.890Z,3766.00
2024-04-09T07:48:51.117Z,3772.00
2024-04-09T07:49:52.363Z,3797.00
2024-04-09T07:50:50.879Z,3825.00
2024-04-09T07:51:50.961Z,3847.00
2024-04-09T07:52:50.929Z,3863.00
2024-04-09T07:53:50.967Z,3890.00
2024-04-09T07:54:51.053Z,3929.00
2024-04-09T07:55:51.018Z,3919.00
2024-04-09T07:56:51.056Z,3889.00
2024-04-09T07:57:51.093Z,3934.00
2024-04-09T07:58:51.232Z,3961.00
2024-04-09T07:59:51.339Z,3975.00
2024-04-09T08:00:51.501Z,3981.00
2024-04-09T08:01:51.519Z,3984.00
2024-04-09T08:02:51.625Z,3984.00
2024-04-09T08:03:51.886Z,3987.00
2024-04-09T08:04:52.211Z,3986.00
2024-04-09T08:05:51.819Z,3982.00
2024-04-09T08:06:51.973Z,3971.00
2024-04-09T08:07:51.982Z,3960.00
2024-04-09T08:08:52.096Z,3946.00
2024-04-09T08:09:52.020Z,3937.00
2024-04-09T08:10:52.120Z,3937.00
2024-04-09T08:11:51.997Z,3929.00
2024-04-09T08:12:52.054Z,3932.00
2024-04-09T08:13:52.024Z,3926.00
2024-04-09T08:14:52.043Z,3925.00
2024-04-09T08:15:52.120Z,3942.00
2024-04-09T08:16:52.131Z,3963.00
2024-04-09T08:17:52.329Z,3969.00
2024-04-09T08:18:52.610Z,3961.00
2024-04-09T08:19:52.499Z,3964.00
2024-04-09T08:20:52.510Z,3961.00
2024-04-09T08:21:52.661Z,3979.00
2024-04-09T08:22:52.696Z,3982.00
2024-04-09T08:23:52.796Z,3982.00
2024-04-09T08:24:52.910Z,4001.00
2024-04-09T08:25:53.044Z,3991.00
2024-04-09T08:26:53.039Z,3994.00
2024-04-09T08:27:53.226Z,3969.00
2024-04-09T08:28:53.254Z,3948.00
2024-04-09T08:29:53.318Z,3947.00
2024-04-09T08:30:53.482Z,3935.00
2024-04-09T08:31:53.525Z,3914.00
2024-04-09T08:32:53.791Z,3887.00
2024-04-09T08:33:53.788Z,3875.00
2024-04-09T08:34:53.874Z,3857.00
2024-04-09T08:35:53.871Z,3806.00
2024-04-09T08:36:54.161Z,3724.00
2024-04-09T08:37:54.184Z,3733.00
2024-04-09T08:38:54.207Z,3665.00
2024-04-09T08:39:54.387Z,3627.00
2024-04-09T08:40:54.424Z,3613.00
2024-04-09T08:41:54.505Z,3472.00
2024-04-09T08:42:57.845Z,3329.00
2024-04-09T08:43:54.589Z,3304.00
2024-04-09T08:44:54.586Z,3282.00
2024-04-09T08:45:54.654Z,3254.00
2024-04-09T08:46:54.624Z,3276.00
2024-04-09T08:47:54.676Z,3312.00
2024-04-09T08:48:54.783Z,3211.00
2024-04-09T08:49:57.666Z,3227.00
2024-04-09T08:50:54.767Z,3197.00
2024-04-09T08:51:54.816Z,3228.00
2024-04-09T08:52:54.747Z,3259.00
2024-04-09T08:53:54.632Z,3292.00
2024-04-09T08:54:54.697Z,3400.00
2024-04-09T08:55:54.678Z,3442.00
2024-04-09T08:56:54.651Z,3480.00
2024-04-09T08:57:54.647Z,3505.00
2024-04-09T08:58:54.672Z,3536.00
2024-04-09T08:59:54.660Z,3546.00
2024-04-09T09:00:54.923Z,3555.00
2024-04-09T09:01:54.667Z,3587.00
2024-04-09T09:02:54.726Z,3590.00
2024-04-09T09:03:54.755Z,3617.00
2024-04-09T09:04:54.691Z,3597.00
2024-04-09T09:05:54.656Z,3585.00
2024-04-09T09:06:54.660Z,3582.00
2024-04-09T09:07:54.676Z,3593.00
2024-04-09T09:08:54.683Z,3618.00
2024-04-09T09:09:54.750Z,3607.00
2024-04-09T09:10:54.847Z,3615.00
2024-04-09T09:11:54.926Z,3603.00
2024-04-09T09:12:54.992Z,3593.00
2024-04-09T09:13:55.099Z,3548.00
2024-04-09T09:14:55.190Z,3529.00
2024-04-09T09:15:55.306Z,3495.00
2024-04-09T09:16:55.467Z,3472.00
2024-04-09T09:17:55.507Z,3480.00
2024-04-09T09:18:55.617Z,3458.00
2024-04-09T09:19:55.628Z,3407.00
2024-04-09T09:20:55.717Z,3381.00
2024-04-09T09:21:55.773Z,3337.00
2024-04-09T09:22:56.272Z,3297.00
2024-04-09T09:23:55.967Z,3274.00
2024-04-09T09:24:56.048Z,3232.00
2024-04-09T09:25:56.138Z,3195.00
2024-04-09T09:26:56.236Z,3164.00
2024-04-09T09:27:56.308Z,3119.00
2024-04-09T09:28:56.405Z,3113.00
2024-04-09T09:29:56.484Z,3085.00
2024-04-09T09:30:56.582Z,3093.00
2024-04-09T09:31:56.736Z,3038.00
2024-04-09T09:32:56.771Z,2989.00
2024-04-09T09:33:56.871Z,2971.00
2024-04-09T09:34:56.869Z,2954.00
2024-04-09T09:35:56.963Z,2961.00
2024-04-09T09:36:57.062Z,2952.00
2024-04-09T09:37:58.474Z,2957.00
2024-04-09T09:38:57.197Z,2954.00
2024-04-09T09:39:57.311Z,2868.00
2024-04-09T09:40:57.322Z,2765.00
2024-04-09T09:41:57.475Z,2636.00
2024-04-09T09:42:57.515Z,2550.00
2024-04-09T09:43:59.417Z,2393.00
2024-04-09T09:44:57.583Z,2241.00
2024-04-09T09:45:57.650Z,2274.00
2024-04-09T09:46:57.652Z,2274.00
2024-04-09T09:47:57.806Z,2257.00
2024-04-09T09:48:57.703Z,2263.00
2024-04-09T09:50:06.188Z,2247.00
2024-04-09T09:50:58.592Z,2216.00
2024-04-09T09:51:57.604Z,2224.00
2024-04-09T09:52:57.607Z,2204.00
2024-04-09T09:53:57.697Z,2177.00
2024-04-09T09:55:00.691Z,2139.00
2024-04-09T09:55:57.604Z,2149.00
2024-04-09T09:56:57.610Z,2136.00
2024-04-09T09:57:57.618Z,2168.00
2024-04-09T09:58:57.626Z,2159.00
2024-04-09T09:59:57.698Z,2162.00
2024-04-09T10:00:57.744Z,2162.00
2024-04-09T10:01:57.660Z,2186.00
2024-04-09T10:02:57.679Z,2169.00
2024-04-09T10:03:57.804Z,2148.00
2024-04-09T10:04:57.695Z,2120.00
2024-04-09T10:05:57.630Z,2121.00
2024-04-09T10:06:58.242Z,2078.00
2024-04-09T10:07:57.621Z,2056.00
2024-04-09T10:08:57.668Z,2042.00
2024-04-09T10:09:57.612Z,1985.00
2024-04-09T10:10:57.650Z,1965.00
2024-04-09T10:11:57.737Z,1978.00
2024-04-09T10:12:57.707Z,2001.00
2024-04-09T10:13:57.636Z,1970.00
2024-04-09T10:14:57.645Z,1989.00
2024-04-09T10:15:57.759Z,1979.00
2024-04-09T10:16:57.655Z,1970.00
2024-04-09T10:17:57.877Z,1928.00
2024-04-09T10:18:57.752Z,1887.00
2024-04-09T10:19:57.681Z,1842.00
2024-04-09T10:20:57.678Z,1808.00
2024-04-09T10:21:57.726Z,1758.00
2024-04-09T10:22:57.688Z,1722.00
2024-04-09T10:23:57.693Z,1713.00
2024-04-09T10:24:57.654Z,1734.00
2024-04-09T10:25:57.700Z,1719.00
2024-04-09T10:26:57.695Z,1675.00
2024-04-09T10:27:57.837Z,1670.00
2024-04-09T10:28:57.936Z,1641.00
2024-04-09T10:29:58.012Z,1626.00
2024-04-09T10:30:58.126Z,1594.00
2024-04-09T10:31:58.207Z,1581.00
2024-04-09T10:32:58.565Z,1545.00
2024-04-09T10:33:58.765Z,1566.00
2024-04-09T10:34:58.591Z,1564.00
2024-04-09T10:35:58.610Z,1569.00
2024-04-09T10:36:58.756Z,1589.00
2024-04-09T10:37:58.814Z,1616.00
2024-04-09T10:38:58.926Z,1659.00
2024-04-09T10:39:59.046Z,1701.00
2024-04-09T10:40:59.107Z,1780.00
2024-04-09T10:41:59.344Z,1782.00
2024-04-09T10:42:59.296Z,1816.00
2024-04-09T10:43:59.419Z,1844.00
2024-04-09T10:44:59.617Z,1869.00
2024-04-09T10:46:07.720Z,1912.00
2024-04-09T10:47:00.632Z,1914.00
2024-04-09T10:47:59.692Z,1920.00
2024-04-09T10:48:59.712Z,1931.00
2024-04-09T10:49:59.563Z,1986.00
2024-04-09T10:50:59.618Z,2043.00
2024-04-09T10:51:59.610Z,2067.00
2024-04-09T10:52:59.601Z,1981.00
2024-04-09T10:53:59.652Z,1987.00
2024-04-09T10:54:59.636Z,1993.00
2024-04-09T10:55:59.620Z,2004.00
2024-04-09T10:56:59.736Z,2036.00
2024-04-09T10:57:59.652Z,2066.00
2024-04-09T10:58:59.721Z,2025.00
2024-04-09T10:59:59.897Z,1934.00
2024-04-09T11:01:00.121Z,1999.00
2024-04-09T11:02:00.045Z,2012.00
2024-04-09T11:03:00.282Z,2033.00
2024-04-09T11:04:00.340Z,1972.00
2024-04-09T11:05:00.499Z,1867.00
2024-04-09T11:06:00.513Z,1845.00
2024-04-09T11:07:00.464Z,1819.00
2024-04-09T11:08:00.509Z,1750.00
2024-04-09T11:09:00.834Z,1752.00
2024-04-09T11:10:00.711Z,1797.00
2024-04-09T11:11:00.751Z,1842.00
2024-04-09T11:12:01.156Z,1833.00
2024-04-09T11:13:00.796Z,1838.00
2024-04-09T11:14:00.855Z,1848.00
2024-04-09T11:16:05.211Z,600.00
2024-04-09T11:17:05.266Z,600.00
2024-04-09T11:18:05.445Z,600.00
2024-04-09T11:19:05.484Z,600.00
2024-04-09T11:20:05.370Z,600.00
2024-04-09T11:21:05.480Z,607.00
2024-04-09T11:22:05.505Z,622.00
2024-04-09T11:23:05.574Z,626.00
2024-04-09T11:24:05.792Z,642.00
2024-04-09T11:25:05.750Z,646.00
2024-04-09T11:26:05.848Z,639.00
2024-04-09T11:27:05.941Z,664.00
2024-04-09T11:28:05.977Z,658.00
2024-04-09T11:29:06.044Z,675.00
2024-04-09T11:30:06.166Z,754.00
2024-04-09T11:31:06.173Z,759.00
2024-04-09T11:32:06.264Z,770.00
2024-04-09T11:33:06.612Z,779.00
2024-04-09T11:34:06.684Z,722.00
2024-04-09T11:35:06.664Z,707.00
2024-04-09T11:36:13.716Z,693.00
2024-04-09T11:37:07.739Z,681.00
2024-04-09T11:38:06.672Z,687.00
2024-04-09T11:39:06.719Z,693.00
2024-04-09T11:40:06.702Z,692.00
2024-04-09T11:41:06.696Z,707.00
2024-04-09T11:42:06.763Z,721.00
2024-04-09T11:43:06.720Z,748.00
2024-04-09T11:44:06.729Z,768.00
2024-04-09T11:45:06.781Z,773.00
2024-04-09T11:46:06.703Z,806.00
2024-04-09T11:47:06.737Z,809.00
2024-04-09T11:48:06.825Z,806.00
2024-04-09T11:49:06.902Z,809.00
2024-04-09T11:50:06.948Z,819.00
2024-04-09T11:51:07.123Z,850.00
2024-04-09T11:52:07.155Z,870.00
2024-04-09T11:53:07.242Z,891.00
2024-04-09T11:54:07.405Z,907.00
2024-04-09T11:55:09.232Z,940.00
2024-04-09T11:56:07.441Z,968.00
2024-04-09T11:57:07.462Z,991.00
2024-04-09T11:58:07.443Z,1018.00
2024-04-09T11:59:07.496Z,1041.00
2024-04-09T12:00:07.557Z,1076.00
2024-04-09T12:01:07.564Z,1109.00
2024-04-09T12:02:07.483Z,1136.00
2024-04-09T12:03:07.603Z,1194.00
2024-04-09T12:04:07.693Z,1242.00
2024-04-09T12:05:07.663Z,1258.00
2024-04-09T12:06:07.607Z,1289.00
2024-04-09T12:07:07.523Z,1303.00
2024-04-09T12:08:07.573Z,1313.00
2024-04-09T12:09:07.560Z,1318.00
2024-04-09T12:10:07.497Z,1309.00
2024-04-09T12:11:07.638Z,1290.00
2024-04-09T12:12:07.518Z,1258.00
2024-04-09T12:13:07.500Z,1240.00
2024-04-09T12:14:07.505Z,1229.00
2024-04-09T12:15:07.650Z,1226.00
2024-04-09T12:16:07.519Z,1212.00
2024-04-09T12:17:07.564Z,1195.00
2024-04-09T12:18:07.853Z,1204.00